createdAt,value
2018-11-29T00:01:10.025Z,2.00
2018-11-29T00:03:45.266Z,2.00
2018-11-29T00:06:20.580Z,2.00
2018-11-29T00:08:56.095Z,2.00
2018-11-29T00:11:31.794Z,2.00
2018-11-29T00:14:07.502Z,2.00
2018-11-29T00:16:42.995Z,1.90
2018-11-29T00:19:18.554Z,1.90
2018-11-29T00:21:54.563Z,1.90
2018-11-29T00:24:30.034Z,1.90
2018-11-29T00:27:05.779Z,1.90
2018-11-29T00:29:40.966Z,1.90
2018-11-29T00:32:16.498Z,1.90
2018-11-29T00:34:52.044Z,1.80
2018-11-29T00:37:27.598Z,1.80
2018-11-29T00:40:03.107Z,1.80
2018-11-29T00:42:38.572Z,1.90
2018-11-29T00:45:16.051Z,1.80
2018-11-29T00:47:52.208Z,1.80
2018-11-29T00:50:27.631Z,1.90
2018-11-29T00:53:03.323Z,1.90
2018-11-29T00:55:38.876Z,1.80
2018-11-29T00:58:14.316Z,1.80
2018-11-29T01:00:49.809Z,1.80
2018-11-29T01:03:25.408Z,1.80
2018-11-29T01:06:00.899Z,1.80
2018-11-29T01:08:36.415Z,1.80
2018-11-29T01:11:11.852Z,1.70
2018-11-29T01:13:47.399Z,1.70
2018-11-29T01:16:22.818Z,1.70
2018-11-29T01:18:58.283Z,1.70
2018-11-29T01:21:33.753Z,1.70
2018-11-29T01:24:09.171Z,1.70
2018-11-29T01:26:44.607Z,1.70
2018-11-29T01:29:20.111Z,1.70
2018-11-29T01:31:55.410Z,1.70
2018-11-29T01:34:30.851Z,1.70
2018-11-29T01:37:06.109Z,1.70
2018-11-29T01:39:41.539Z,1.70
2018-11-29T01:42:17.011Z,1.70
2018-11-29T01:44:52.636Z,1.70
2018-11-29T01:47:28.050Z,1.70
2018-11-29T01:50:03.931Z,1.70
2018-11-29T01:52:39.265Z,1.70
2018-11-29T01:55:14.916Z,1.70
2018-11-29T01:57:50.728Z,1.70
2018-11-29T02:00:26.328Z,1.70
2018-11-29T02:03:01.663Z,1.70
2018-11-29T02:05:37.163Z,1.80
2018-11-29T02:08:12.412Z,1.80
2018-11-29T02:10:51.706Z,1.80
2018-11-29T02:13:26.876Z,1.80
2018-11-29T02:16:02.482Z,1.80
2018-11-29T02:18:38.144Z,1.80
2018-11-29T02:21:13.871Z,1.90
2018-11-29T02:23:49.283Z,1.90
2018-11-29T02:26:24.771Z,2.00
2018-11-29T02:29:00.338Z,1.90
2018-11-29T02:31:36.892Z,2.00
2018-11-29T02:34:12.312Z,2.00
2018-11-29T02:36:47.883Z,2.00
2018-11-29T02:39:23.364Z,2.10
2018-11-29T02:41:58.823Z,2.10
2018-11-29T02:44:34.059Z,2.10
2018-11-29T02:47:09.526Z,2.10
2018-11-29T02:49:45.052Z,2.00
2018-11-29T02:52:21.067Z,2.00
2018-11-29T02:54:56.344Z,2.10
2018-11-29T02:57:31.758Z,2.10
2018-11-29T03:00:16.031Z,2.10
2018-11-29T03:02:51.368Z,2.10
2018-11-29T03:05:26.808Z,2.10
2018-11-29T03:08:02.355Z,2.10
2018-11-29T03:10:37.799Z,2.10
2018-11-29T03:13:13.335Z,2.10
2018-11-29T03:15:48.830Z,2.00
2018-11-29T03:18:24.535Z,2.00
2018-11-29T03:21:00.055Z,2.00
2018-11-29T03:23:35.632Z,2.00
2018-11-29T03:26:11.292Z,2.10
2018-11-29T03:28:46.927Z,2.00
2018-11-29T03:31:22.096Z,2.10
2018-11-29T03:33:57.751Z,2.10
2018-11-29T03:36:33.061Z,2.10
2018-11-29T03:39:08.762Z,2.10
2018-11-29T03:41:43.971Z,2.10
2018-11-29T03:44:19.700Z,2.20
2018-11-29T03:46:55.302Z,2.10
2018-11-29T03:49:30.999Z,2.20
2018-11-29T03:52:07.164Z,2.20
2018-11-29T03:54:42.816Z,2.20
2018-11-29T03:57:18.323Z,2.20
2018-11-29T03:59:53.913Z,2.20
2018-11-29T04:02:29.255Z,2.20
2018-11-29T04:05:04.801Z,2.20
2018-11-29T04:07:40.261Z,2.20
2018-11-29T04:10:16.813Z,2.20
2018-11-29T04:12:52.495Z,2.20
2018-11-29T04:15:27.900Z,2.20
2018-11-29T04:18:03.074Z,2.20
2018-11-29T04:20:38.695Z,2.20
2018-11-29T04:23:14.319Z,2.10
2018-11-29T04:25:49.643Z,2.00
2018-11-29T04:28:25.245Z,2.00
2018-11-29T04:31:00.900Z,1.90
2018-11-29T04:33:36.537Z,1.90
2018-11-29T04:36:11.980Z,2.00
2018-11-29T04:38:47.632Z,1.90
2018-11-29T04:41:23.104Z,2.00
2018-11-29T04:43:58.671Z,2.00
2018-11-29T04:46:43.695Z,2.00
2018-11-29T04:49:19.240Z,2.00
2018-11-29T04:51:54.708Z,2.00
2018-11-29T04:54:30.353Z,2.00
2018-11-29T04:57:05.823Z,1.90
2018-11-29T04:59:41.435Z,1.90
2018-11-29T05:02:16.867Z,1.90
2018-11-29T05:04:52.429Z,1.90
2018-11-29T05:07:27.977Z,2.00
2018-11-29T05:10:03.724Z,1.90
2018-11-29T05:12:39.215Z,1.90
2018-11-29T05:15:14.831Z,1.90
2018-11-29T05:17:50.308Z,1.90
2018-11-29T05:20:25.952Z,1.90
2018-11-29T05:23:01.476Z,1.90
2018-11-29T05:25:37.112Z,1.90
2018-11-29T05:28:12.579Z,2.00
2018-11-29T05:30:48.112Z,1.90
2018-11-29T05:33:23.431Z,1.90
2018-11-29T05:35:58.895Z,2.00
2018-11-29T05:38:34.342Z,2.00
2018-11-29T05:41:09.779Z,2.00
2018-11-29T05:43:45.307Z,2.10
2018-11-29T05:46:20.882Z,2.00
2018-11-29T05:48:56.537Z,1.90
2018-11-29T05:51:31.971Z,2.00
2018-11-29T05:54:07.199Z,1.90
2018-11-29T05:56:42.759Z,2.00
2018-11-29T05:59:18.187Z,1.90
2018-11-29T06:01:54.703Z,1.90
2018-11-29T06:04:30.099Z,2.00
2018-11-29T06:07:05.767Z,2.00
2018-11-29T06:09:41.426Z,2.00
2018-11-29T06:12:17.386Z,2.00
2018-11-29T06:14:52.832Z,2.00
2018-11-29T06:17:28.267Z,2.00
2018-11-29T06:20:03.895Z,2.00
2018-11-29T06:22:39.362Z,2.00
2018-11-29T06:25:14.855Z,2.10
2018-11-29T06:27:51.179Z,2.10
2018-11-29T06:30:27.003Z,2.10
2018-11-29T06:33:03.048Z,2.10
2018-11-29T06:35:38.494Z,2.10
2018-11-29T06:38:13.881Z,2.10
2018-11-29T06:40:49.207Z,2.10
2018-11-29T06:43:24.559Z,2.10
2018-11-29T06:46:00.006Z,2.10
2018-11-29T06:48:35.673Z,2.10
2018-11-29T06:51:10.945Z,2.10
2018-11-29T06:53:51.767Z,2.10
2018-11-29T06:56:27.499Z,2.20
2018-11-29T06:59:03.068Z,2.10
2018-11-29T07:01:38.559Z,2.10
2018-11-29T07:04:14.468Z,2.10
2018-11-29T07:06:49.799Z,2.20
2018-11-29T07:09:25.360Z,2.20
2018-11-29T07:12:00.947Z,2.30
2018-11-29T07:14:36.455Z,2.30
2018-11-29T07:17:11.911Z,2.30
2018-11-29T07:19:47.469Z,2.30
2018-11-29T07:22:22.783Z,2.40
2018-11-29T07:24:58.343Z,2.40
2018-11-29T07:27:33.811Z,2.40
2018-11-29T07:30:15.240Z,2.40
2018-11-29T07:32:50.529Z,2.40
2018-11-29T07:35:26.059Z,2.40
2018-11-29T07:38:01.384Z,2.50
2018-11-29T07:40:36.847Z,2.50
2018-11-29T07:43:11.674Z,2.60
2018-11-29T07:45:50.143Z,2.50
2018-11-29T07:48:25.749Z,2.60
2018-11-29T07:51:01.308Z,2.60
2018-11-29T07:53:36.617Z,2.60
2018-11-29T07:56:12.285Z,2.60
2018-11-29T07:58:51.546Z,2.60
2018-11-29T08:01:23.579Z,2.60
2018-11-29T08:03:58.898Z,2.70
2018-11-29T08:06:34.872Z,2.70
2018-11-29T08:09:10.244Z,2.70
2018-11-29T08:11:45.794Z,2.70
2018-11-29T08:14:21.047Z,2.70
2018-11-29T08:16:56.661Z,2.70
2018-11-29T08:19:32.035Z,2.70
2018-11-29T08:22:07.579Z,2.70
2018-11-29T08:24:43.076Z,2.80
2018-11-29T08:27:17.952Z,2.80
2018-11-29T08:29:52.698Z,2.80
2018-11-29T08:32:28.104Z,2.90
2018-11-29T08:35:02.851Z,2.90
2018-11-29T08:37:37.802Z,2.90
2018-11-29T08:40:13.952Z,2.90
2018-11-29T08:42:49.090Z,3.00
2018-11-29T08:45:23.672Z,3.00
2018-11-29T08:47:58.545Z,3.00
2018-11-29T08:50:33.335Z,3.00
2018-11-29T08:53:08.103Z,3.00
2018-11-29T08:55:42.752Z,3.10
2018-11-29T08:58:17.606Z,3.20
2018-11-29T09:00:52.973Z,3.30
2018-11-29T09:03:28.735Z,3.30
2018-11-29T09:06:04.059Z,3.20
2018-11-29T09:08:39.730Z,3.30
2018-11-29T09:11:15.207Z,3.30
2018-11-29T09:13:50.720Z,3.20
2018-11-29T09:16:26.219Z,3.20
2018-11-29T09:19:01.711Z,3.20
2018-11-29T09:21:37.243Z,3.20
2018-11-29T09:24:12.842Z,3.20
2018-11-29T09:26:48.327Z,3.30
2018-11-29T09:29:24.003Z,3.30
2018-11-29T09:31:59.315Z,3.40
2018-11-29T09:34:34.205Z,3.40
2018-11-29T09:37:09.605Z,3.50
2018-11-29T09:39:45.165Z,3.50
2018-11-29T09:42:20.515Z,3.50
2018-11-29T09:44:56.059Z,3.60
2018-11-29T09:47:31.588Z,3.60
2018-11-29T09:50:11.259Z,3.70
2018-11-29T09:52:46.804Z,3.70
2018-11-29T09:55:22.218Z,3.70
2018-11-29T09:57:57.824Z,3.70
2018-11-29T10:00:33.810Z,3.70
2018-11-29T10:03:14.332Z,3.80
2018-11-29T10:05:49.734Z,3.90
2018-11-29T10:08:26.230Z,3.90
2018-11-29T10:11:07.452Z,3.80
2018-11-29T10:13:46.174Z,3.80
2018-11-29T10:16:18.611Z,3.80
2018-11-29T10:18:54.256Z,3.80
2018-11-29T10:21:29.685Z,3.70
2018-11-29T10:24:05.172Z,3.80
2018-11-29T10:26:40.479Z,3.80
2018-11-29T10:29:16.037Z,3.80
2018-11-29T10:31:51.267Z,3.80
2018-11-29T10:34:26.927Z,3.80
2018-11-29T10:37:02.448Z,3.80
2018-11-29T10:39:37.925Z,3.90
2018-11-29T10:42:13.349Z,3.90
2018-11-29T10:44:48.911Z,4.00
2018-11-29T10:47:24.274Z,4.00
2018-11-29T10:50:11.070Z,4.00
2018-11-29T10:52:46.900Z,4.00
2018-11-29T10:55:22.467Z,4.10
2018-11-29T10:57:57.961Z,4.00
2018-11-29T11:00:39.719Z,4.10
2018-11-29T11:03:18.195Z,4.10
2018-11-29T11:05:54.486Z,4.10
2018-11-29T11:08:29.855Z,4.00
2018-11-29T11:11:08.655Z,4.00
2018-11-29T11:13:44.009Z,4.10
2018-11-29T11:16:19.654Z,4.20
2018-11-29T11:18:55.485Z,4.30
2018-11-29T11:21:31.476Z,4.30
2018-11-29T11:24:06.979Z,4.40
2018-11-29T11:26:42.660Z,4.40
2018-11-29T11:29:18.287Z,4.40
2018-11-29T11:31:53.859Z,4.40
2018-11-29T11:34:29.317Z,4.40
2018-11-29T11:37:05.255Z,4.40
2018-11-29T11:39:40.680Z,4.50
2018-11-29T11:42:16.267Z,4.40
2018-11-29T11:44:51.835Z,4.40
2018-11-29T11:47:27.345Z,4.40
2018-11-29T11:50:03.002Z,4.40
2018-11-29T11:52:38.549Z,4.40
2018-11-29T11:55:19.031Z,4.40
2018-11-29T11:57:49.842Z,4.50
2018-11-29T12:00:29.300Z,4.50
2018-11-29T12:03:11.066Z,4.50
2018-11-29T12:05:46.734Z,4.60
2018-11-29T12:08:22.291Z,4.60
2018-11-29T12:10:57.939Z,4.60
2018-11-29T12:13:34.204Z,4.50
2018-11-29T12:16:09.656Z,4.50
2018-11-29T12:18:45.029Z,4.50
2018-11-29T12:21:20.553Z,4.50
2018-11-29T12:23:56.343Z,4.50
2018-11-29T12:26:31.933Z,4.60
2018-11-29T12:29:08.029Z,4.50
2018-11-29T12:31:43.750Z,4.50
2018-11-29T12:34:19.108Z,4.50
2018-11-29T12:36:54.582Z,4.50
2018-11-29T12:39:30.193Z,4.50
2018-11-29T12:42:05.943Z,4.40
2018-11-29T12:44:41.290Z,4.50
2018-11-29T12:47:16.715Z,4.50
2018-11-29T12:49:52.500Z,4.60
2018-11-29T12:52:28.123Z,4.60
2018-11-29T12:55:03.563Z,4.50
2018-11-29T12:57:39.008Z,4.50
2018-11-29T13:00:18.060Z,4.50
2018-11-29T13:02:59.167Z,4.50
2018-11-29T13:05:37.216Z,4.50
2018-11-29T13:08:12.667Z,4.50
2018-11-29T13:10:48.038Z,4.60
2018-11-29T13:13:23.555Z,4.70
2018-11-29T13:15:59.079Z,4.70
2018-11-29T13:18:41.239Z,4.80
2018-11-29T13:21:16.599Z,4.70
2018-11-29T13:23:52.096Z,4.80
2018-11-29T13:26:27.276Z,4.80
2018-11-29T13:29:02.675Z,4.70
2018-11-29T13:31:37.937Z,4.80
2018-11-29T13:34:13.582Z,4.80
2018-11-29T13:36:49.034Z,4.70
2018-11-29T13:39:24.659Z,4.70
2018-11-29T13:42:01.081Z,4.70
2018-11-29T13:44:35.859Z,4.70
2018-11-29T13:47:11.306Z,4.70
2018-11-29T13:49:47.373Z,4.60
2018-11-29T13:52:22.893Z,4.60
2018-11-29T13:54:58.564Z,4.60
2018-11-29T13:57:34.099Z,4.50
2018-11-29T14:00:15.355Z,4.50
2018-11-29T14:02:53.795Z,4.40
2018-11-29T14:05:29.304Z,4.40
2018-11-29T14:08:04.871Z,4.40
2018-11-29T14:10:41.899Z,4.40
2018-11-29T14:13:17.192Z,4.40
2018-11-29T14:15:52.672Z,4.40
2018-11-29T14:18:28.144Z,4.40
2018-11-29T14:21:03.669Z,4.40
2018-11-29T14:23:39.087Z,4.40
2018-11-29T14:26:14.859Z,4.40
2018-11-29T14:28:50.271Z,4.40
2018-11-29T14:31:25.762Z,4.40
2018-11-29T14:34:01.188Z,4.40
2018-11-29T14:36:36.848Z,4.40
2018-11-29T14:39:12.347Z,4.30
2018-11-29T14:41:47.844Z,4.30
2018-11-29T14:44:23.316Z,4.30
2018-11-29T14:46:58.831Z,4.30
2018-11-29T14:49:40.959Z,4.30
2018-11-29T14:52:16.583Z,4.30
2018-11-29T14:54:51.939Z,4.30
2018-11-29T14:57:27.278Z,4.30
2018-11-29T15:00:02.644Z,4.30
2018-11-29T15:02:38.266Z,4.30
2018-11-29T15:05:20.663Z,4.30
2018-11-29T15:07:56.320Z,4.30
2018-11-29T15:10:31.511Z,4.30
2018-11-29T15:13:08.751Z,4.40
2018-11-29T15:15:44.567Z,4.30
2018-11-29T15:18:20.153Z,4.40
2018-11-29T15:20:55.705Z,4.30
2018-11-29T15:23:31.460Z,4.30
2018-11-29T15:26:06.919Z,4.30
2018-11-29T15:28:42.421Z,4.30
2018-11-29T15:31:18.003Z,4.30
2018-11-29T15:33:53.643Z,4.30
2018-11-29T15:36:29.007Z,4.30
2018-11-29T15:39:06.383Z,4.30
2018-11-29T15:41:41.725Z,4.30
2018-11-29T15:44:17.260Z,4.30
2018-11-29T15:46:52.768Z,4.30
2018-11-29T15:49:28.459Z,4.30
2018-11-29T15:52:04.027Z,4.30
2018-11-29T15:54:39.777Z,4.30
2018-11-29T15:57:15.298Z,4.30
2018-11-29T15:59:50.881Z,4.30
2018-11-29T16:02:26.375Z,4.30
2018-11-29T16:05:01.952Z,4.30
2018-11-29T16:07:37.204Z,4.30
2018-11-29T16:10:14.367Z,4.30
2018-11-29T16:12:49.857Z,4.40
2018-11-29T16:15:25.466Z,4.30
2018-11-29T16:18:00.683Z,4.40
2018-11-29T16:20:39.535Z,4.30
2018-11-29T16:23:14.966Z,4.30
2018-11-29T16:25:50.628Z,4.40
2018-11-29T16:28:26.098Z,4.40
2018-11-29T16:31:01.727Z,4.40
2018-11-29T16:33:39.331Z,4.40
2018-11-29T16:36:14.883Z,4.40
2018-11-29T16:38:50.340Z,4.40
2018-11-29T16:41:25.815Z,4.40
2018-11-29T16:44:01.274Z,4.40
2018-11-29T16:46:36.752Z,4.40
2018-11-29T16:49:12.079Z,4.40
2018-11-29T16:51:47.639Z,4.40
2018-11-29T16:54:22.983Z,4.50
2018-11-29T16:56:58.532Z,4.50
2018-11-29T16:59:34.091Z,4.50
2018-11-29T17:02:09.831Z,4.50
2018-11-29T17:04:45.167Z,4.60
2018-11-29T17:07:21.035Z,4.60
2018-11-29T17:09:56.507Z,4.60
2018-11-29T17:12:32.129Z,4.60
2018-11-29T17:15:11.354Z,4.60
2018-11-29T17:17:47.022Z,4.60
2018-11-29T17:20:22.463Z,4.60
2018-11-29T17:22:57.954Z,4.60
2018-11-29T17:25:33.299Z,4.60
2018-11-29T17:28:09.096Z,4.60
2018-11-29T17:30:44.414Z,4.70
2018-11-29T17:33:19.972Z,4.70
2018-11-29T17:35:55.279Z,4.70
2018-11-29T17:38:30.775Z,4.70
2018-11-29T17:41:07.586Z,4.70
2018-11-29T17:43:43.113Z,4.70
2018-11-29T17:46:18.540Z,4.70
2018-11-29T17:48:54.015Z,4.70
2018-11-29T17:51:29.442Z,4.80
2018-11-29T17:54:05.186Z,4.80
2018-11-29T17:56:40.507Z,4.80
2018-11-29T17:59:15.971Z,4.80
2018-11-29T18:01:51.423Z,4.80
2018-11-29T18:04:27.066Z,4.80
2018-11-29T18:07:02.491Z,4.80
2018-11-29T18:09:38.060Z,4.80
2018-11-29T18:12:13.552Z,4.80
2018-11-29T18:14:49.257Z,4.80
2018-11-29T18:17:24.737Z,4.80
2018-11-29T18:20:00.171Z,4.80
2018-11-29T18:22:35.663Z,4.80
2018-11-29T18:25:14.491Z,4.80
2018-11-29T18:27:51.284Z,4.70
2018-11-29T18:30:26.844Z,4.70
2018-11-29T18:33:02.160Z,4.70
2018-11-29T18:35:37.731Z,4.70
2018-11-29T18:38:13.143Z,4.70
2018-11-29T18:40:48.727Z,4.80
2018-11-29T18:43:23.899Z,4.80
2018-11-29T18:45:59.307Z,4.80
2018-11-29T18:48:34.684Z,4.80
2018-11-29T18:51:10.450Z,4.80
2018-11-29T18:53:45.932Z,4.80
2018-11-29T18:56:21.688Z,4.80
2018-11-29T18:58:57.095Z,4.90
2018-11-29T19:01:32.487Z,4.90
2018-11-29T19:04:07.838Z,4.90
2018-11-29T19:06:44.140Z,4.90
2018-11-29T19:09:19.569Z,4.90
2018-11-29T19:11:54.991Z,4.90
2018-11-29T19:14:30.386Z,4.90
2018-11-29T19:17:06.735Z,4.90
2018-11-29T19:19:42.154Z,4.90
2018-11-29T19:22:17.799Z,4.90
2018-11-29T19:24:53.219Z,4.90
2018-11-29T19:27:28.818Z,5.00
2018-11-29T19:30:05.150Z,5.00
2018-11-29T19:32:40.832Z,5.00
2018-11-29T19:35:16.345Z,5.00
2018-11-29T19:37:51.915Z,5.00
2018-11-29T19:40:27.400Z,5.00
2018-11-29T19:43:03.095Z,5.00
2018-11-29T19:45:38.579Z,5.00
2018-11-29T19:48:14.272Z,5.00
2018-11-29T19:50:49.871Z,5.00
2018-11-29T19:53:26.749Z,5.00
2018-11-29T19:56:03.413Z,5.00
2018-11-29T19:58:39.186Z,5.00
2018-11-29T20:01:14.620Z,5.00
2018-11-29T20:03:50.363Z,5.00
2018-11-29T20:06:25.962Z,5.00
2018-11-29T20:09:01.763Z,5.00
2018-11-29T20:11:37.123Z,5.00
2018-11-29T20:14:12.707Z,5.00
2018-11-29T20:16:48.118Z,5.00
2018-11-29T20:19:23.837Z,5.00
2018-11-29T20:21:59.431Z,5.00
2018-11-29T20:24:34.955Z,5.00
2018-11-29T20:27:10.319Z,5.00
2018-11-29T20:29:45.844Z,5.00
2018-11-29T20:32:21.200Z,5.00
2018-11-29T20:34:56.709Z,5.10
2018-11-29T20:37:32.151Z,5.10
2018-11-29T20:40:17.251Z,5.10
2018-11-29T20:42:56.177Z,5.20
2018-11-29T20:45:35.993Z,5.20
2018-11-29T20:48:15.853Z,5.20
2018-11-29T20:50:52.833Z,5.30
2018-11-29T20:53:32.966Z,5.30
2018-11-29T20:56:12.019Z,5.30
2018-11-29T20:58:47.512Z,5.30
2018-11-29T21:01:23.059Z,5.30
2018-11-29T21:03:58.269Z,5.30
2018-11-29T21:06:33.711Z,5.20
2018-11-29T21:09:12.395Z,5.20
2018-11-29T21:11:47.882Z,5.20
2018-11-29T21:14:23.090Z,5.10
2018-11-29T21:16:58.427Z,5.20
2018-11-29T21:19:33.880Z,5.20
2018-11-29T21:22:09.552Z,5.20
2018-11-29T21:24:44.983Z,5.20
2018-11-29T21:27:20.351Z,5.20
2018-11-29T21:29:56.003Z,5.20
2018-11-29T21:32:31.489Z,5.20
2018-11-29T21:35:07.927Z,5.20
2018-11-29T21:37:43.619Z,5.20
2018-11-29T21:40:34.616Z,5.20
2018-11-29T21:43:10.048Z,5.20
2018-11-29T21:45:45.540Z,5.20
2018-11-29T21:48:21.042Z,5.30
2018-11-29T21:50:56.544Z,5.30
2018-11-29T21:53:32.153Z,5.30
2018-11-29T21:56:07.612Z,5.30
2018-11-29T21:58:43.082Z,5.30
2018-11-29T22:01:18.561Z,5.40
2018-11-29T22:03:54.203Z,5.30
2018-11-29T22:06:29.647Z,5.40
2018-11-29T22:09:06.791Z,5.30
2018-11-29T22:11:42.453Z,5.30
2018-11-29T22:14:18.106Z,5.20
2018-11-29T22:16:53.675Z,5.20
2018-11-29T22:19:29.054Z,5.10
2018-11-29T22:22:04.851Z,5.00
2018-11-29T22:24:40.199Z,5.00
2018-11-29T22:27:15.658Z,5.00
2018-11-29T22:29:51.090Z,5.00
2018-11-29T22:32:26.521Z,4.90
2018-11-29T22:35:01.987Z,4.90
2018-11-29T22:37:38.048Z,4.80
2018-11-29T22:40:13.438Z,4.90
2018-11-29T22:42:48.920Z,4.90
2018-11-29T22:45:24.212Z,4.90
2018-11-29T22:47:59.814Z,5.00
2018-11-29T22:50:35.342Z,5.00
2018-11-29T22:53:11.110Z,5.00
2018-11-29T22:55:46.415Z,5.10
2018-11-29T22:58:21.895Z,5.20
2018-11-29T23:00:57.343Z,5.30
2018-11-29T23:03:32.998Z,5.40
2018-11-29T23:06:08.337Z,5.50
2018-11-29T23:08:44.088Z,5.60
2018-11-29T23:11:19.645Z,5.60
2018-11-29T23:13:55.296Z,5.70
2018-11-29T23:16:30.637Z,5.70
2018-11-29T23:19:06.071Z,5.70
2018-11-29T23:21:41.587Z,5.80
2018-11-29T23:24:17.071Z,5.80
2018-11-29T23:26:52.297Z,5.80
2018-11-29T23:29:27.751Z,5.80
2018-11-29T23:32:03.344Z,5.80
2018-11-29T23:34:38.843Z,5.80
2018-11-29T23:37:14.168Z,5.80
2018-11-29T23:39:49.759Z,5.80
2018-11-29T23:42:25.091Z,5.80
2018-11-29T23:45:00.651Z,5.90
2018-11-29T23:47:36.184Z,5.90
2018-11-29T23:50:17.248Z,5.90
2018-11-29T23:52:52.546Z,5.80
2018-11-29T23:55:28.044Z,5.90
2018-11-29T23:58:03.536Z,6.00
